Time;durP1;ratioP1;P1;durP2;ratioP2;P2;SDS_P1;SDS_P2;PMS_P1;PMS_P2;Temp;Humidity;BMP_temperature;BMP_pressure;BME280_temperature;BME280_humidity;BME280_pressure;Samples;Min_cycle;Max_cycle;Signal;HPM_P1;HPM_P2
2023/02/10 00:01:12;;;;;;;44.20;31.43;;;;;;;2.17;47.58;99664.59;8412679;28;20232;-68
2023/02/10 00:05:15;;;;;;;41.53;30.20;;;;;;;2.22;47.38;99657.00;8412641;28;20239;-67
2023/02/10 00:09:19;;;;;;;41.17;29.50;;;;;;;2.29;47.09;99669.03;8412882;28;20406;-66
2023/02/10 00:13:22;;;;;;;42.93;30.77;;;;;;;2.18;46.85;99679.09;8412692;28;20227;-66
2023/02/10 00:17:25;;;;;;;44.07;31.03;;;;;;;2.05;47.16;99679.72;8412581;28;20228;-66
2023/02/10 00:21:28;;;;;;;43.63;31.43;;;;;;;2.08;46.80;99679.78;8412400;28;20242;-66
2023/02/10 00:25:32;;;;;;;43.37;31.33;;;;;;;2.04;46.79;99676.31;8412328;28;20232;-67
2023/02/10 00:29:35;;;;;;;45.57;30.97;;;;;;;2.08;46.38;99679.78;8411770;28;20500;-66
2023/02/10 00:33:37;;;;;;;44.77;31.03;;;;;;;1.94;46.79;99653.97;8412170;28;20231;-66
2023/02/10 00:37:40;;;;;;;44.40;32.10;;;;;;;1.86;47.03;99668.31;8412066;28;20243;-67
2023/02/10 00:41:45;;;;;;;44.23;30.93;;;;;;;1.84;47.05;99685.31;8403713;28;20448;-66
2023/02/10 00:45:48;;;;;;;42.53;31.67;;;;;;;1.80;46.73;99696.28;8411685;28;20285;-66
2023/02/10 00:49:51;;;;;;;46.93;32.63;;;;;;;1.86;46.71;99701.50;8411604;28;20431;-66
2023/02/10 00:53:54;;;;;;;45.30;32.23;;;;;;;1.85;46.86;99699.81;8411683;28;20389;-66
2023/02/10 00:57:58;;;;;;;43.87;31.53;;;;;;;1.43;46.93;99698.13;8411640;28;20240;-65
2023/02/10 01:02:01;;;;;;;45.23;31.27;;;;;;;1.71;46.96;99702.97;8411513;28;20232;-66
2023/02/10 01:06:06;;;;;;;43.57;30.13;;;;;;;1.80;46.72;99704.81;8411047;28;20228;-66
2023/02/10 01:10:09;;;;;;;40.93;30.03;;;;;;;1.72;46.94;99709.78;8411312;28;20243;-66
2023/02/10 01:14:14;;;;;;;43.50;29.17;;;;;;;1.77;47.05;99720.06;8411300;28;20220;-66
2023/02/10 01:18:18;;;;;;;42.13;29.63;;;;;;;1.66;47.38;99719.88;8411182;28;20235;-66
2023/02/10 01:22:21;;;;;;;35.90;27.53;;;;;;;1.68;47.31;99723.31;8411083;28;20227;-66
2023/02/10 01:26:24;;;;;;;38.77;28.60;;;;;;;1.63;47.58;99707.03;8410869;28;20231;-66
2023/02/10 01:30:28;;;;;;;39.77;27.93;;;;;;;1.06;47.43;99651.44;8410837;28;20235;-66
2023/02/10 01:34:31;;;;;;;37.43;27.20;;;;;;;1.34;47.94;99732.00;8410963;28;20250;-66
2023/02/10 01:38:34;;;;;;;38.60;27.33;;;;;;;1.51;47.56;99740.00;8410978;28;20510;-66
2023/02/10 01:42:38;;;;;;;38.37;27.73;;;;;;;1.75;46.67;99734.50;8416356;28;20499;-66
2023/02/10 01:46:42;;;;;;;38.60;28.47;;;;;;;1.55;46.78;99729.88;8417402;28;20228;-66
2023/02/10 01:50:49;;;;;;;38.40;26.87;;;;;;;1.34;46.46;99720.09;8416753;28;20262;-66
2023/02/10 01:54:55;;;;;;;42.07;28.60;;;;;;;1.52;46.24;99734.94;8417062;28;20235;-66
2023/02/10 01:58:58;;;;;;;40.03;28.03;;;;;;;1.24;46.88;99722.41;8416773;28;20250;-66
2023/02/10 02:03:03;;;;;;;38.40;29.00;;;;;;;1.41;46.81;99726.19;8416702;28;20239;-66
2023/02/10 02:07:06;;;;;;;39.57;27.40;;;;;;;1.10;46.82;99724.66;8416442;28;20232;-66
2023/02/10 02:11:16;;;;;;;40.17;27.83;;;;;;;1.12;46.95;99726.44;8416644;28;20251;-66
2023/02/10 02:15:26;;;;;;;37.43;26.73;;;;;;;1.20;47.01;99718.97;8416580;28;20255;-66
2023/02/10 02:24:55;;;;;;;38.27;26.80;;;;;;;1.10;46.81;99719.56;8415600;28;20221;-66
2023/02/10 02:29:10;;;;;;;37.57;26.67;;;;;;;1.17;47.09;99736.75;8411089;28;20229;-66
2023/02/10 02:33:19;;;;;;;36.30;26.20;;;;;;;1.13;46.97;99727.31;8415945;28;20247;-66
2023/02/10 02:37:24;;;;;;;37.23;28.10;;;;;;;1.16;46.95;99743.53;8415889;28;20227;-66
2023/02/10 02:41:27;;;;;;;37.57;27.53;;;;;;;1.12;46.96;99751.97;8415656;28;20231;-66
2023/02/10 02:45:36;;;;;;;37.70;26.10;;;;;;;1.12;47.50;99748.53;8415389;28;20227;-66
2023/02/10 02:49:46;;;;;;;40.00;26.67;;;;;;;1.09;47.33;99745.94;8415256;28;20240;-66
2023/02/10 02:53:54;;;;;;;41.00;27.40;;;;;;;1.09;47.93;99748.47;8414656;28;20373;-66
2023/02/10 02:58:00;;;;;;;38.90;28.07;;;;;;;1.18;47.56;99748.66;8415056;28;20235;-66
2023/02/10 03:02:05;;;;;;;38.00;27.03;;;;;;;1.14;48.08;99749.41;8414936;28;20224;-66
2023/02/10 03:06:12;;;;;;;42.27;27.47;;;;;;;1.19;47.92;99745.28;8414815;28;20236;-66
2023/02/10 03:10:15;;;;;;;41.57;27.13;;;;;;;0.98;48.16;99743.13;8414798;28;20232;-66
2023/02/10 03:14:18;;;;;;;36.60;26.40;;;;;;;1.04;47.71;99735.59;8414743;28;20240;-66
2023/02/10 03:18:20;;;;;;;41.30;27.37;;;;;;;1.05;47.66;99731.34;8414227;28;20422;-66
2023/02/10 03:22:26;;;;;;;36.87;25.77;;;;;;;1.03;47.51;99735.56;8414461;28;20532;-66
2023/02/10 03:26:29;;;;;;;35.67;26.10;;;;;;;1.10;47.85;99738.28;8414067;28;20555;-66
2023/02/10 03:30:32;;;;;;;38.07;26.53;;;;;;;0.84;48.27;99736.84;8414117;28;20508;-66
2023/02/10 03:34:35;;;;;;;37.83;27.00;;;;;;;0.86;48.15;99738.63;8414020;28;20224;-66
2023/02/10 03:38:39;;;;;;;35.93;25.27;;;;;;;1.03;47.24;99746.66;8414113;28;20235;-66
2023/02/10 03:42:42;;;;;;;37.60;26.53;;;;;;;1.02;46.90;99742.38;8405246;28;20224;-67
2023/02/10 03:46:46;;;;;;;33.97;25.57;;;;;;;1.03;47.17;99744.09;8413487;28;20224;-66
2023/02/10 03:50:49;;;;;;;37.07;25.50;;;;;;;0.88;47.52;99748.88;8413254;28;20239;-66
2023/02/10 03:54:53;;;;;;;35.73;25.20;;;;;;;0.83;47.79;99741.09;8413401;28;20224;-66
2023/02/10 03:58:56;;;;;;;34.67;25.33;;;;;;;0.94;47.44;99754.94;8413295;28;20242;-66
2023/02/10 04:02:59;;;;;;;37.20;25.80;;;;;;;0.81;48.07;99760.59;8412220;28;20224;-66
2023/02/10 04:07:02;;;;;;;36.43;25.93;;;;;;;0.31;47.94;99727.94;8412798;28;20429;-66
2023/02/10 04:11:09;;;;;;;38.70;26.03;;;;;;;0.83;47.24;99784.44;8412839;28;20228;-66
2023/02/10 04:15:11;;;;;;;35.63;25.37;;;;;;;0.78;47.18;99793.66;8412800;28;20239;-66
2023/02/10 04:19:14;;;;;;;35.40;24.37;;;;;;;0.76;47.40;99785.13;8412404;28;20247;-66
2023/02/10 04:23:17;;;;;;;36.10;26.13;;;;;;;0.81;47.06;99793.75;8412488;28;20449;-67
2023/02/10 04:27:21;;;;;;;38.03;26.87;;;;;;;0.86;47.51;99788.78;8412399;28;20251;-67
2023/02/10 04:31:24;;;;;;;37.93;26.83;;;;;;;0.80;47.24;99786.06;8412160;28;20398;-67
2023/02/10 04:35:30;;;;;;;40.10;26.63;;;;;;;0.68;47.84;99796.81;8412138;28;20239;-67
2023/02/10 04:39:33;;;;;;;38.47;26.67;;;;;;;0.52;46.38;99791.34;8412069;28;20250;-67
2023/02/10 04:43:37;;;;;;;35.87;26.00;;;;;;;0.64;47.21;99795.03;8411935;28;20220;-67
2023/02/10 04:47:40;;;;;;;37.60;25.40;;;;;;;0.60;47.01;99804.28;8411704;28;20395;-64
2023/02/10 04:51:43;;;;;;;40.23;28.73;;;;;;;0.31;46.90;99809.50;8403205;28;20394;-65
2023/02/10 04:55:46;;;;;;;41.87;29.17;;;;;;;0.61;47.06;99812.78;8411618;28;20395;-65
2023/02/10 04:59:50;;;;;;;40.73;29.67;;;;;;;0.52;47.05;99816.00;8411517;28;20255;-65
2023/02/10 05:03:53;;;;;;;42.30;29.33;;;;;;;0.45;47.29;99799.66;8411192;28;20232;-65
2023/02/10 05:07:56;;;;;;;47.13;33.20;;;;;;;0.47;47.28;99820.09;8410910;28;20430;-66
2023/02/10 05:11:58;;;;;;;43.50;29.40;;;;;;;0.40;47.27;99808.91;8411073;28;20239;-65
2023/02/10 05:16:03;;;;;;;37.30;26.97;;;;;;;0.61;47.46;99821.31;8411024;28;20260;-65
2023/02/10 05:20:09;;;;;;;38.97;28.07;;;;;;;0.45;47.27;99820.06;8410452;28;20224;-66
2023/02/10 05:24:12;;;;;;;38.17;26.40;;;;;;;0.44;46.79;99820.00;8411067;28;20232;-66
2023/02/10 05:28:15;;;;;;;34.00;25.63;;;;;;;0.35;46.37;99802.81;8411038;28;20242;-66
2023/02/10 05:32:20;;;;;;;38.27;26.37;;;;;;;0.52;46.45;99824.50;8410722;28;20231;-66
2023/02/10 05:36:23;;;;;;;37.63;26.13;;;;;;;0.46;46.51;99826.00;8410721;28;20247;-67
2023/02/10 05:40:26;;;;;;;37.67;27.10;;;;;;;0.45;46.29;99820.06;8410639;28;20228;-66
2023/02/10 05:44:30;;;;;;;38.60;26.40;;;;;;;0.21;46.73;99787.16;8410633;28;20224;-66
2023/02/10 05:48:34;;;;;;;38.43;26.50;;;;;;;0.48;46.53;99832.88;8410294;28;20247;-67
2023/02/10 05:52:39;;;;;;;41.67;28.90;;;;;;;0.47;46.69;99827.75;8410709;28;20250;-67
2023/02/10 05:56:42;;;;;;;39.53;27.90;;;;;;;0.44;46.15;99838.75;8410400;28;20228;-66
2023/02/10 06:00:45;;;;;;;37.90;27.37;;;;;;;0.38;46.58;99843.66;8410366;28;20232;-66
2023/02/10 06:04:49;;;;;;;41.20;27.53;;;;;;;0.45;45.94;99847.25;8410412;28;20228;-66
2023/02/10 06:08:54;;;;;;;37.23;26.27;;;;;;;0.05;46.74;99843.63;8410278;28;20247;-66
2023/02/10 06:12:57;;;;;;;48.00;32.80;;;;;;;0.40;45.91;99852.22;8410418;28;20236;-67
2023/02/10 06:17:01;;;;;;;43.20;29.40;;;;;;;0.06;45.89;99850.41;8410098;28;20231;-67
2023/02/10 06:21:06;;;;;;;40.53;28.27;;;;;;;0.33;45.75;99860.53;8410277;28;20538;-67
2023/02/10 06:25:09;;;;;;;43.33;29.40;;;;;;;0.18;45.47;99856.72;8410104;28;20569;-67
2023/02/10 06:29:12;;;;;;;43.37;29.00;;;;;;;0.12;46.35;99876.09;8415304;28;20240;-67
2023/02/10 06:33:15;;;;;;;42.13;28.13;;;;;;;0.19;47.15;99880.50;8415793;28;20231;-67
2023/02/10 06:37:19;;;;;;;43.30;27.97;;;;;;;0.25;47.08;99890.00;8415483;28;20236;-67
2023/02/10 06:41:22;;;;;;;40.83;28.87;;;;;;;0.26;46.63;99899.41;8415009;28;20224;-67
2023/02/10 06:45:26;;;;;;;39.10;26.90;;;;;;;0.34;47.19;99896.25;8415426;28;20228;-67
2023/02/10 06:49:29;;;;;;;43.07;27.53;;;;;;;0.43;46.59;99898.19;8415418;28;20239;-67
2023/02/10 06:53:33;;;;;;;61.77;37.97;;;;;;;0.25;47.18;99905.31;8415282;28;20228;-68
2023/02/10 06:57:38;;;;;;;40.33;29.03;;;;;;;-0.31;48.79;99911.34;8415244;28;20225;-67
2023/02/10 07:01:41;;;;;;;42.73;28.10;;;;;;;0.41;47.34;99912.56;8415096;28;20224;-67
2023/02/10 07:05:44;;;;;;;43.93;29.10;;;;;;;0.38;47.02;99904.81;8414464;28;20228;-68
2023/02/10 07:09:48;;;;;;;42.23;29.17;;;;;;;0.57;46.75;99901.97;8414868;28;20238;-68
2023/02/10 07:13:51;;;;;;;44.07;29.37;;;;;;;0.65;46.89;99907.28;8414697;28;20228;-68
2023/02/10 07:17:54;;;;;;;43.33;29.67;;;;;;;0.74;46.79;99914.28;8414417;28;20228;-68
2023/02/10 07:21:57;;;;;;;41.70;29.33;;;;;;;0.68;47.19;99909.03;8414506;28;20240;-67
2023/02/10 07:26:01;;;;;;;42.27;30.00;;;;;;;0.94;46.75;99912.28;8414098;28;20236;-68
2023/02/10 07:30:04;;;;;;;47.87;30.57;;;;;;;0.82;47.30;99914.50;8414189;28;20224;-67
2023/02/10 07:34:07;;;;;;;44.10;28.70;;;;;;;0.84;47.72;99911.19;8413927;28;20224;-68
2023/02/10 07:38:10;;;;;;;46.87;31.60;;;;;;;0.71;48.11;99909.97;8412713;28;20235;-67
2023/02/10 07:42:14;;;;;;;44.50;31.40;;;;;;;0.86;48.22;99917.19;8413931;28;20232;-67
2023/02/10 07:46:16;;;;;;;44.93;31.27;;;;;;;0.67;48.05;99909.88;8413555;28;20554;-67
2023/02/10 07:50:20;;;;;;;47.53;30.77;;;;;;;1.20;47.60;99910.38;8413477;28;20330;-65
2023/02/10 07:54:23;;;;;;;46.57;32.10;;;;;;;0.78;48.81;99909.31;8413344;28;20455;-67
2023/02/10 07:58:27;;;;;;;45.40;31.77;;;;;;;1.07;48.30;99916.00;8413148;28;20231;-65
2023/02/10 08:02:30;;;;;;;43.57;31.40;;;;;;;1.38;47.55;99917.59;8412739;28;20224;-65
2023/02/10 08:06:33;;;;;;;46.30;31.47;;;;;;;1.23;47.54;99910.44;8412864;28;20346;-66
2023/02/10 08:10:36;;;;;;;48.33;31.93;;;;;;;1.80;47.50;99904.09;8412654;28;20228;-65
2023/02/10 08:14:40;;;;;;;45.67;32.33;;;;;;;2.72;45.17;99925.53;8412506;28;20243;-65
2023/02/10 08:18:43;;;;;;;47.40;33.63;;;;;;;3.17;43.92;99927.19;8412241;28;20224;-65
2023/02/10 08:22:46;;;;;;;46.60;32.00;;;;;;;3.53;43.61;99931.19;8412417;28;20232;-65
2023/02/10 08:26:49;;;;;;;49.33;31.67;;;;;;;3.89;43.36;99928.28;8412399;28;20244;-66
2023/02/10 08:30:53;;;;;;;48.27;32.63;;;;;;;4.47;41.82;99941.03;8412130;28;20232;-65
2023/02/10 08:34:56;;;;;;;43.23;31.83;;;;;;;4.98;40.99;99936.41;8411893;28;20228;-66
2023/02/10 08:38:59;;;;;;;33.90;26.40;;;;;;;8.72;55.11;99939.03;8412227;28;20235;-66
2023/02/10 08:43:03;;;;;;;41.30;30.57;;;;;;;9.36;37.96;99937.75;8411905;28;20428;-67
2023/02/10 08:47:10;;;;;;;43.33;32.67;;;;;;;6.43;37.75;99855.06;8411882;28;20228;-66
2023/02/10 08:51:15;;;;;;;43.03;32.90;;;;;;;6.99;37.94;99943.63;8411481;28;20282;-66
2023/02/10 08:55:17;;;;;;;44.63;32.87;;;;;;;6.82;37.99;99947.00;8411863;28;20465;-66
2023/02/10 08:59:22;;;;;;;41.47;31.80;;;;;;;7.24;37.46;99950.50;8411528;28;20231;-66
2023/02/10 09:03:28;;;;;;;39.37;30.80;;;;;;;7.28;37.75;99953.09;8411548;28;20315;-66
2023/02/10 09:07:31;;;;;;;39.37;31.73;;;;;;;6.76;38.35;99957.31;8411168;28;20228;-66
2023/02/10 09:11:34;;;;;;;40.83;31.03;;;;;;;7.39;37.29;99972.88;8411093;28;20315;-66
2023/02/10 09:15:38;;;;;;;47.50;36.67;;;;;;;7.23;36.39;99981.44;8411304;28;20235;-66
2023/02/10 09:19:42;;;;;;;43.67;34.50;;;;;;;7.65;37.60;99972.00;8411119;28;20228;-66
2023/02/10 09:23:48;;;;;;;43.83;32.33;;;;;;;7.99;37.00;99983.13;8410852;28;20232;-66
2023/02/10 09:27:54;;;;;;;41.37;32.63;;;;;;;8.12;35.69;99985.72;8411248;28;20228;-66
2023/02/10 09:31:58;;;;;;;44.53;33.37;;;;;;;8.51;36.23;99961.53;8410822;28;20574;-66
2023/02/10 09:36:02;;;;;;;46.50;34.37;;;;;;;8.02;36.91;99980.56;8411100;28;20429;-66
2023/02/10 09:40:06;;;;;;;41.77;32.43;;;;;;;8.79;35.19;99975.16;8411115;28;20227;-66
2023/02/10 09:44:14;;;;;;;45.90;34.70;;;;;;;7.33;38.08;99979.72;8410862;28;20227;-66
2023/02/10 09:48:28;;;;;;;40.33;32.53;;;;;;;7.92;37.42;99991.78;8410650;28;20422;-66
2023/02/10 09:52:47;;;;;;;41.33;32.33;;;;;;;7.19;38.09;99988.28;8410906;28;20232;-66
2023/02/10 09:56:50;;;;;;;43.97;33.63;;;;;;;7.47;38.69;99988.34;8410450;28;20239;-67
2023/02/10 10:00:56;;;;;;;40.50;31.43;;;;;;;7.39;38.87;99988.34;8411417;28;20232;-66
2023/02/10 10:05:00;;;;;;;40.87;31.53;;;;;;;6.69;40.37;99988.19;8416908;28;20220;-66
2023/02/10 10:09:15;;;;;;;42.13;31.53;;;;;;;7.01;39.62;100003.75;8416839;28;20393;-66
2023/02/10 10:13:22;;;;;;;42.57;32.00;;;;;;;6.46;40.86;99989.78;8416650;28;20293;-66
2023/02/10 10:17:56;;;;;;;43.07;31.30;;;;;;;6.13;42.55;100005.94;8416301;28;20239;-66
2023/02/10 10:22:07;;;;;;;41.83;32.30;;;;;;;6.03;42.43;100007.56;8416302;28;20227;-66
2023/02/10 10:26:33;;;;;;;41.97;31.33;;;;;;;6.12;41.91;99995.63;8416213;28;20230;-66
2023/02/10 10:30:44;;;;;;;40.93;32.60;;;;;;;5.91;43.20;99997.16;8416273;28;20281;-66
2023/02/10 10:34:52;;;;;;;41.30;31.07;;;;;;;6.19;42.90;99997.38;8415803;28;20287;-67
2023/02/10 10:38:59;;;;;;;42.53;30.83;;;;;;;5.84;43.40;99959.38;8416060;28;20528;-66
2023/02/10 10:43:03;;;;;;;42.93;32.70;;;;;;;6.11;43.08;99986.16;8415903;28;20230;-66
2023/02/10 10:47:11;;;;;;;42.60;31.67;;;;;;;6.07;43.19;99998.16;8415601;28;20233;-66
2023/02/10 10:51:14;;;;;;;40.63;29.43;;;;;;;6.15;43.58;99990.47;8415580;28;20683;-66
2023/02/10 10:55:21;;;;;;;45.90;31.67;;;;;;;6.23;43.73;99981.09;8415565;28;20224;-66
2023/02/10 10:59:30;;;;;;;41.93;31.90;;;;;;;6.20;43.66;99971.63;8415390;28;20540;-66
2023/02/10 11:03:34;;;;;;;42.43;32.00;;;;;;;6.28;43.67;99981.13;8414847;28;20229;-66
2023/02/10 11:07:38;;;;;;;45.87;32.10;;;;;;;6.31;43.49;99966.56;8415163;28;20231;-66
2023/02/10 11:11:43;;;;;;;42.10;32.90;;;;;;;6.26;43.34;99965.66;8414494;28;20263;-66
2023/02/10 11:15:47;;;;;;;42.90;32.10;;;;;;;5.86;43.57;99922.56;8414336;28;20220;-66
2023/02/10 11:19:55;;;;;;;40.13;30.20;;;;;;;6.29;43.98;99965.69;8414752;28;20232;-66
2023/02/10 11:23:58;;;;;;;50.73;38.87;;;;;;;6.05;44.37;99971.56;8413662;28;20410;-66
2023/02/10 11:28:03;;;;;;;47.50;33.43;;;;;;;6.00;44.51;99968.97;8413986;28;20247;-66
2023/02/10 11:32:19;;;;;;;40.50;30.93;;;;;;;5.97;44.01;99956.06;8413590;28;20224;-66
2023/02/10 11:36:31;;;;;;;44.17;30.13;;;;;;;6.32;47.90;99967.41;8413487;28;20520;-65
2023/02/10 11:40:50;;;;;;;43.23;31.83;;;;;;;5.99;44.45;99967.22;8413463;28;20236;-66
2023/02/10 11:44:55;;;;;;;46.77;33.70;;;;;;;6.05;44.83;99961.25;8412889;28;20249;-66
2023/02/10 11:49:00;;;;;;;43.20;32.90;;;;;;;5.87;45.57;99969.72;8413287;28;20228;-66
2023/02/10 11:53:03;;;;;;;44.67;32.53;;;;;;;5.84;45.90;99962.81;8412772;28;20232;-66
2023/02/10 12:01:52;;;;;;;46.37;31.70;;;;;;;6.11;46.21;99953.59;8412492;28;20227;-66
2023/02/10 12:06:03;;;;;;;46.73;33.63;;;;;;;5.96;45.96;99943.19;8411989;28;20229;-66
2023/02/10 12:10:12;;;;;;;46.87;33.00;;;;;;;6.21;46.13;99951.94;8412392;28;20231;-66
2023/02/10 12:14:29;;;;;;;46.97;33.10;;;;;;;6.08;46.76;99930.44;8411994;28;20385;-66
2023/02/10 12:18:42;;;;;;;46.23;34.60;;;;;;;6.23;46.40;99953.66;8411936;28;20224;-65
2023/02/10 12:23:26;;;;;;;44.27;32.77;;;;;;;5.86;47.00;99939.69;8411647;28;20238;-66
2023/02/10 12:27:42;;;;;;;49.20;33.27;;;;;;;6.16;46.70;99944.19;8392411;28;20232;-67
2023/02/10 12:31:51;;;;;;;43.57;32.60;;;;;;;5.75;46.85;99890.78;8403511;28;20252;-67
2023/02/10 12:35:59;;;;;;;45.30;32.47;;;;;;;6.10;46.29;99925.28;8411404;28;20266;-67
2023/02/10 12:40:19;;;;;;;44.03;31.87;;;;;;;6.12;45.82;99933.88;8410503;28;20544;-67
2023/02/10 12:44:34;;;;;;;49.97;32.33;;;;;;;6.37;45.83;99927.13;8411023;28;20236;-67
2023/02/10 12:48:42;;;;;;;43.10;31.30;;;;;;;6.07;46.21;99918.41;8410255;28;20231;-67
2023/02/10 12:52:50;;;;;;;42.93;32.50;;;;;;;6.18;46.65;99924.47;8410506;28;20646;-65
2023/02/10 12:56:55;;;;;;;43.70;31.63;;;;;;;5.88;47.24;99913.16;8411168;28;20228;-66
2023/02/10 13:01:07;;;;;;;42.17;31.97;;;;;;;6.22;46.96;99925.34;8410956;28;20424;-66
2023/02/10 13:05:12;;;;;;;45.43;31.77;;;;;;;6.38;46.86;99934.00;8410828;28;20235;-66
2023/02/10 13:09:18;;;;;;;44.90;33.10;;;;;;;6.33;45.94;99905.66;8410661;28;20236;-66
2023/02/10 13:13:25;;;;;;;42.37;30.73;;;;;;;6.47;46.28;99918.56;8410622;28;20565;-67
2023/02/10 13:17:40;;;;;;;44.87;33.03;;;;;;;6.50;46.29;99920.31;8410296;28;20229;-66
2023/02/10 13:21:49;;;;;;;43.47;31.23;;;;;;;6.67;45.95;99916.06;8409972;28;20235;-66
2023/02/10 13:26:12;;;;;;;45.13;32.37;;;;;;;6.59;45.54;99915.19;8410412;28;20561;-66
2023/02/10 13:30:42;;;;;;;43.33;31.90;;;;;;;6.30;46.23;99915.06;8410352;28;20219;-66
2023/02/10 13:34:48;;;;;;;45.17;31.73;;;;;;;6.49;45.52;99906.56;8410015;28;20413;-66
2023/02/10 13:38:59;;;;;;;43.23;30.77;;;;;;;6.58;45.16;99914.31;8416155;28;20228;-66
2023/02/10 13:43:03;;;;;;;46.50;32.07;;;;;;;6.19;46.51;99908.19;8417150;28;20240;-66
2023/02/10 13:47:15;;;;;;;46.50;29.93;;;;;;;6.50;45.54;99910.03;8416665;28;20228;-66
2023/02/10 13:51:32;;;;;;;41.53;30.63;;;;;;;6.59;45.41;99912.63;8416943;28;20445;-66
2023/02/10 13:55:44;;;;;;;40.43;30.07;;;;;;;6.57;45.13;99907.47;8416644;28;20231;-67
2023/02/10 13:59:47;;;;;;;41.40;30.37;;;;;;;6.62;45.71;99908.31;8407041;28;20224;-66
2023/02/10 14:03:56;;;;;;;43.40;31.77;;;;;;;6.49;46.04;99905.72;8416328;28;20232;-66
2023/02/10 14:08:00;;;;;;;39.63;29.93;;;;;;;6.51;45.55;99875.69;8416291;28;20235;-67
2023/02/10 14:12:05;;;;;;;44.27;31.33;;;;;;;6.60;45.15;99909.19;8416061;28;20228;-66
2023/02/10 14:16:28;;;;;;;42.73;31.10;;;;;;;6.64;45.10;99898.91;8415971;28;20236;-67
2023/02/10 14:20:35;;;;;;;42.43;31.70;;;;;;;6.78;45.50;99901.50;8415835;28;20285;-67
2023/02/10 14:24:44;;;;;;;42.23;30.77;;;;;;;6.79;44.91;99877.47;8415612;28;20240;-66
2023/02/10 14:28:54;;;;;;;39.80;31.40;;;;;;;6.88;44.97;99893.81;8415283;28;20232;-66
2023/02/10 14:32:57;;;;;;;42.27;31.83;;;;;;;6.79;45.25;99877.47;8415390;28;20327;-66
2023/02/10 14:37:02;;;;;;;41.30;31.27;;;;;;;6.85;45.08;99884.34;8415386;28;20228;-66
2023/02/10 14:41:08;;;;;;;41.27;31.17;;;;;;;7.07;44.48;99879.22;8415291;28;20308;-66
2023/02/10 14:45:27;;;;;;;41.83;30.73;;;;;;;7.23;43.81;99876.66;8414855;28;20530;-66
2023/02/10 14:49:35;;;;;;;46.53;33.00;;;;;;;7.23;43.98;99881.81;8414233;28;20569;-66
2023/02/10 14:53:40;;;;;;;43.83;34.47;;;;;;;7.33;43.93;99884.34;8414276;28;20239;-67
2023/02/10 14:57:46;;;;;;;41.13;29.63;;;;;;;7.57;43.44;99874.00;8414236;28;20544;-66
2023/02/10 15:01:49;;;;;;;40.90;31.23;;;;;;;8.05;41.91;99878.19;8414518;28;20267;-68
2023/02/10 15:05:55;;;;;;;39.63;30.30;;;;;;;8.00;41.42;99849.84;8414357;28;20232;-68
2023/02/10 15:10:00;;;;;;;40.50;30.40;;;;;;;7.81;41.95;99872.25;8414514;28;20224;-65
2023/02/10 15:14:05;;;;;;;33.50;26.57;;;;;;;7.92;41.80;99864.47;8413958;28;20410;-66
2023/02/10 15:18:10;;;;;;;37.80;27.00;;;;;;;7.95;41.60;99860.16;8413888;28;20231;-66
2023/02/10 15:22:32;;;;;;;37.03;28.87;;;;;;;7.64;41.81;99844.78;8413829;28;20220;-66
2023/02/10 15:26:39;;;;;;;39.77;28.83;;;;;;;7.33;43.50;99854.31;8413822;28;20239;-66
2023/02/10 15:30:53;;;;;;;126.47;79.37;;;;;;;7.48;43.36;99852.56;8413120;28;20224;-66
2023/02/10 15:35:06;;;;;;;175.63;114.13;;;;;;;7.39;43.65;99864.59;8413492;28;20232;-66
2023/02/10 15:39:21;;;;;;;54.77;37.83;;;;;;;7.35;44.11;99859.44;8413250;28;20232;-66
2023/02/10 15:43:26;;;;;;;66.10;45.47;;;;;;;7.21;44.27;99815.66;8413199;28;20225;-66
2023/02/10 15:47:45;;;;;;;64.30;44.20;;;;;;;7.30;44.29;99861.19;8412489;28;20240;-66
2023/02/10 15:51:52;;;;;;;41.07;31.80;;;;;;;7.07;44.74;99848.31;8412491;28;20235;-66
2023/02/10 15:55:55;;;;;;;45.20;34.63;;;;;;;7.03;44.96;99844.88;8412529;28;20233;-66
2023/02/10 15:59:59;;;;;;;43.73;32.53;;;;;;;7.03;45.16;99865.47;8411529;28;20301;-66
2023/02/10 16:04:07;;;;;;;40.13;30.37;;;;;;;6.92;45.59;99860.31;8412697;28;20424;-66
2023/02/10 16:08:20;;;;;;;47.63;35.90;;;;;;;6.83;46.25;99866.34;8412137;28;20224;-66
2023/02/10 16:12:23;;;;;;;54.13;39.27;;;;;;;6.71;46.68;99878.31;8412358;28;20220;-66
2023/02/10 16:16:25;;;;;;;43.13;30.97;;;;;;;6.55;46.23;99847.41;8412145;28;20224;-66
2023/02/10 16:20:31;;;;;;;44.87;32.37;;;;;;;6.59;46.97;99879.16;8412033;28;20224;-66
2023/02/10 16:24:34;;;;;;;47.47;32.90;;;;;;;6.26;47.24;99865.31;8411663;28;20232;-67
2023/02/10 16:28:37;;;;;;;43.10;31.67;;;;;;;6.45;47.09;99876.53;8411805;28;20227;-66
2023/02/10 16:32:40;;;;;;;42.70;32.30;;;;;;;6.32;47.38;99869.63;8411163;28;20238;-66
2023/02/10 16:36:45;;;;;;;39.60;30.20;;;;;;;6.15;47.20;99839.56;8410896;28;20243;-66
2023/02/10 16:40:48;;;;;;;41.40;31.57;;;;;;;6.20;47.54;99878.16;8411479;28;20247;-67
2023/02/10 16:44:50;;;;;;;37.83;29.87;;;;;;;6.18;47.25;99877.31;8410362;28;20232;-66
2023/02/10 16:48:53;;;;;;;43.73;32.80;;;;;;;6.11;47.41;99880.69;8410872;28;20228;-66
2023/02/10 16:52:57;;;;;;;42.37;32.03;;;;;;;5.82;47.71;99853.94;8410881;28;20538;-66
2023/02/10 16:57:00;;;;;;;42.37;32.43;;;;;;;5.29;47.77;99755.19;8410969;28;20311;-66
2023/02/10 17:01:03;;;;;;;44.23;32.53;;;;;;;5.89;48.02;99883.16;8410917;28;20235;-66
2023/02/10 17:05:06;;;;;;;42.93;31.87;;;;;;;5.78;47.84;99871.94;8411006;28;20228;-66
2023/02/10 17:09:14;;;;;;;42.00;31.93;;;;;;;5.68;48.78;99882.16;8410899;28;20239;-66
2023/02/10 17:13:17;;;;;;;41.33;31.70;;;;;;;5.60;48.46;99876.13;8411328;28;20353;-66
2023/02/10 17:17:20;;;;;;;45.80;31.77;;;;;;;5.75;48.67;99893.34;8411099;28;20228;-65
2023/02/10 17:21:23;;;;;;;44.77;32.37;;;;;;;5.69;48.78;99893.28;8411046;28;20232;-66
2023/02/10 17:25:27;;;;;;;45.87;31.87;;;;;;;5.61;49.03;99887.25;8410509;28;20264;-66
2023/02/10 17:29:30;;;;;;;47.23;34.83;;;;;;;5.35;48.91;99858.81;8410892;28;20232;-66
2023/02/10 17:33:33;;;;;;;45.97;34.33;;;;;;;5.55;49.21;99894.94;8410741;28;20232;-66
2023/02/10 17:37:36;;;;;;;45.87;37.30;;;;;;;5.46;48.96;99896.59;8410565;28;20239;-66
2023/02/10 17:41:40;;;;;;;46.20;34.87;;;;;;;5.43;49.24;99906.00;8410472;28;20220;-67
2023/02/10 17:45:43;;;;;;;58.33;39.97;;;;;;;5.31;49.52;99904.16;8409450;28;20216;-67
2023/02/10 17:49:46;;;;;;;56.80;41.90;;;;;;;5.37;49.32;99911.06;8410284;28;20231;-67
2023/02/10 17:53:50;;;;;;;59.77;43.37;;;;;;;5.28;49.55;99905.00;8410393;28;20534;-67
2023/02/10 17:57:55;;;;;;;59.33;40.70;;;;;;;5.25;49.45;99914.41;8409905;28;20232;-67
2023/02/10 18:02:01;;;;;;;62.03;41.43;;;;;;;5.08;49.70;99902.28;8410208;28;20417;-67
2023/02/10 18:06:13;;;;;;;67.03;44.50;;;;;;;5.09;49.14;99896.28;8409841;28;20228;-68
2023/02/10 18:10:17;;;;;;;58.00;40.53;;;;;;;5.22;49.84;99916.97;8409946;28;20243;-67
2023/02/10 18:14:21;;;;;;;52.53;37.57;;;;;;;5.21;50.09;99917.78;8409459;28;20228;-68
2023/02/10 18:18:24;;;;;;;45.77;34.23;;;;;;;5.05;49.99;99909.97;8409720;28;20582;-67
2023/02/10 18:22:30;;;;;;;49.67;35.50;;;;;;;5.27;49.55;99913.59;8411572;28;20223;-68
2023/02/10 18:26:33;;;;;;;49.77;36.90;;;;;;;5.22;49.85;99916.97;8415850;28;20228;-68
2023/02/10 18:30:37;;;;;;;48.33;37.13;;;;;;;5.16;50.15;99924.59;8415781;28;20224;-68
2023/02/10 18:34:40;;;;;;;47.83;36.53;;;;;;;5.08;50.42;99925.41;8415419;28;20232;-67
2023/02/10 18:38:48;;;;;;;47.20;35.93;;;;;;;4.98;50.21;99913.31;8406890;28;20426;-67
2023/02/10 18:42:52;;;;;;;46.67;36.70;;;;;;;4.97;50.34;99903.91;8415225;28;20229;-67
2023/02/10 18:46:56;;;;;;;55.33;38.87;;;;;;;4.95;50.54;99909.84;8415010;28;20430;-67
2023/02/10 18:51:03;;;;;;;47.87;37.03;;;;;;;4.95;50.95;99914.97;8415103;28;20236;-67
2023/02/10 18:55:07;;;;;;;48.87;35.77;;;;;;;4.39;50.51;99806.66;8414975;28;20527;-67
2023/02/10 18:59:10;;;;;;;50.60;37.07;;;;;;;4.85;50.79;99906.34;8415032;28;20228;-67
2023/02/10 19:03:14;;;;;;;48.83;36.80;;;;;;;4.90;50.64;99896.97;8414715;28;20228;-66
2023/02/10 19:07:18;;;;;;;52.10;38.73;;;;;;;4.75;50.84;99869.44;8414522;28;20523;-66
2023/02/10 19:11:21;;;;;;;51.93;36.93;;;;;;;5.04;50.53;99900.50;8414333;28;20224;-67